logo
App data

1953: NATO vs Warsaw Pact

1953: NATO vs Warsaw Pact is a game where World War III becomes a reality. Will once again this conflict become a panzer corps’ clash of steel, or maybe the strategic command will decide to nuke the enemy out of the globe.
Store | Hub | SteamDB | Site
Developer: Wastelands Interactive Publisher: Wastelands Interactive
Genre: Strategy, Early Access
Languages: English
Tags: Early Access (38), Strategy (34), Wargame (14), Turn-Based Strategy (12), Turn-Based (11), Grand Strategy (11), Cold War (6)
Category: Single-player, Steam Trading Cards
Release date: Dec 4, 2014
Price: $4.99 75%
Owners: 0 .. 20,000
Followers: 423
Peak concurrent players yesterday: 1
Playtime total: 04:29 (average) 04:16 (median)

Steam Spy is still in beta, so expect major bugs.

Owners data:

Access restricted.

This feature is only available to users with special access rights. Sorry.

If you want to proceed, you need to register or log in first and then back Steam Spy on Patreon. Look for Indie or Pro pledge.

Don't forget to use the same email as on Steam Spy!

Audience in 2 weeks:

Access restricted.

This feature is only available to users with special access rights. Sorry.

If you want to proceed, you need to register or log in first and then back Steam Spy on Patreon. Look for Indie or Pro pledge.

Don't forget to use the same email as on Steam Spy!

Peak daily concurrent players:

CCU data courtesy of SteamDB. Used with permission.

Hourly concurrent players:

YouTube:

The views data is based on top 50 videos uploaded last week. Actual number of views might be more than the number shown.

The displayed number of videos uploaded yesterday is limited to 50, so if there were more videos uploaded, the number will still show 50.

If the game has commonly used word as its name (like "FEAR" or "Volume") its number of Youtube views might be wrong.

Games similar to this one:

# Game Release date
Price
Score rank
(Userscore / Metascore)
Owners
Players
Playtime (Median)
1 Night Blights Apr 15, 2016 $6.99100% (100%)0 .. 20,0000%00:00 (00:00)
2 Everyday Genius: SquareLogic Oct 9, 2009 $4.9999% (98%)0 .. 20,0000%00:00 (00:00)
3 Moonlight Feb 5, 2016 $1.9992% (95%)0 .. 20,0000%00:00 (00:00)
4 Unium Mar 27, 2015 $1.9992% (95%)20,000 .. 50,0000%00:00 (00:00)
5 Divide By Sheep Jul 2, 2015 $4.9992% (95%/83%)100,000 .. 200,0000.78%03:31 (02:20)
6 Estiman Nov 23, 2016 $0.99N/A (N/A)0 .. 20,0000%00:00 (00:00)
7 The Way We All Go Mar 24, 2015 $5.9976% (90%)0 .. 20,0000%00:00 (00:00)
8 Cloudberry Kingdom Aug 2, 2013 $9.9976% (90%/67%)20,000 .. 50,0000%00:00 (00:00)
9 Forgotten, Not Lost - A Kinetic Novel Apr 1, 2016 $1.9973% (89%)50,000 .. 100,0000%00:00 (00:00)
10 Koala Kids Jun 22, 2015 $1.9973% (89%)20,000 .. 50,0000%00:00 (00:00)
11 Lobotomy Corporation | Monster Management Simulation Apr 9, 2018 $24.9973% (89%)100,000 .. 200,0004.08%30:34 (40:34)
12 Rooms: The Unsolvable Puzzle May 1, 2015 $14.9973% (89%/66%)0 .. 20,0000%00:00 (00:00)
13 This Starry Midnight We Make Jun 1, 2015 $9.99N/A (N/A)0 .. 20,0000%00:00 (00:00)
14 Gigachess Dec 15, 2015 $3.99N/A (N/A)0 .. 20,0000%00:00 (00:00)
15 Masochisia Oct 9, 2015 $7.9968% (87%/68%)0 .. 20,0000%00:00 (00:00)
16 Anode Oct 5, 2015 $3.99N/A (N/A)20,000 .. 50,0000%00:00 (00:00)
17 Security Hole Sep 28, 2016 $9.9965% (86%)0 .. 20,0000%00:00 (00:00)
18 Alpha Runner Sep 2, 2015 $0.9965% (86%)100,000 .. 200,0000.49%03:29 (01:09)
19 In Between Aug 21, 2015 $8.9965% (86%/68%)50,000 .. 100,0000%00:00 (00:00)
20 Sentinel 4: Dark Star Aug 13, 2015 $6.99N/A (N/A)0 .. 20,0000%00:00 (00:00)
21 Iron Sea Defenders Sep 9, 2016 $4.9962% (85%)20,000 .. 50,0000.57%17:15 (05:45)
22 Project Starship Apr 5, 2016 $0.9962% (85%)200,000 .. 500,0000%00:00 (00:00)
23 Crash Drive 2 May 28, 2015 $4.9960% (84%)50,000 .. 100,0000.56%00:01 (00:00)
24 Governor of Poker 2 - Premium Edition Oct 11, 2010 $14.9960% (84%)20,000 .. 50,0000%00:00 (00:00)
25 Collisions Jul 28, 2015 $3.9957% (83%)50,000 .. 100,0001.16%00:13 (00:04)
26 Cute Things Dying Violently Sep 2, 2015 $2.99N/A (N/A)0 .. 20,0000%00:00 (00:00)
27 Stay Alight Mar 2, 2015 $3.9953% (81%)20,000 .. 50,0000%00:00 (00:00)
28 Ancients of Ooga May 20, 2011 $9.99N/A (N/A)20,000 .. 50,0000%00:00 (00:00)
29 Automation - The Car Company Tycoon Game Mar 12, 2015 $29.9953% (81%)50,000 .. 100,00016.88%02:14 (02:20)
30 Egg Returns Home May 5, 2015 $0.9950% (80%)20,000 .. 50,0000%00:00 (00:00)
31 Space Drifters 2D Mar 28, 2016 $0.99N/A (N/A)20,000 .. 50,0000%00:00 (00:00)
32 Until I Have You Apr 4, 2016 $13.9950% (80%)0 .. 20,0000%00:00 (00:00)
33 CAPSULE May 29, 2014 $4.9948% (79%)0 .. 20,0000%00:00 (00:00)
34 Star Sky - ブルームーン Oct 23, 2015 $3.9948% (79%)0 .. 20,0000%00:00 (00:00)
35 The Last NightMary - A Lenda do Cabeça de Cuia Nov 2, 2015 $3.9948% (79%)50,000 .. 100,0000%00:00 (00:00)
36 GamersGoMakers Aug 8, 2014 $9.9948% (79%)0 .. 20,0000%00:00 (00:00)
37 Particulars Nov 19, 2014 $5.9946% (78%/74%)20,000 .. 50,0000%00:00 (00:00)
38 MXGP - The Official Motocross Videogame Mar 28, 2014 $19.9944% (77%)50,000 .. 100,0000%00:00 (00:00)
39 Paranormal State: Poison Spring Apr 9, 2014 $9.9944% (77%)50,000 .. 100,0000%00:00 (00:00)
40 Alchemy Mysteries: Prague Legends Dec 22, 2014 $1.9944% (77%)100,000 .. 200,0000.32%06:54 (02:18)
41 Pixel Puzzles 2: Birds Feb 20, 2015 $9.9944% (77%)200,000 .. 500,0000.44%04:02 (02:41)
42 Ionball 2: Ionstorm Jun 6, 2014 $4.9944% (77%/70%)200,000 .. 500,0000.29%03:17 (02:11)
43 Mayhem Intergalactic Jul 4, 2007 $9.99N/A (N/A)0 .. 20,0000%00:00 (00:00)
44 Neon Prism Nov 18, 2016 $4.9940% (75%)50,000 .. 100,0000.95%03:10 (02:33)
45 The Deletion Jul 30, 2015 $1.9940% (75%)20,000 .. 50,0000%00:00 (00:00)
46 BalanCity Sep 21, 2016 $7.9938% (74%)20,000 .. 50,0005.22%00:29 (00:40)
47 Riddles Of The Past Jul 22, 2016 $6.9937% (73%)0 .. 20,0000%00:00 (00:00)
48 Laserlife Sep 22, 2015 $9.9937% (73%)0 .. 20,0000%00:00 (00:00)
49 Crash Wheels Dec 14, 2016 $4.9937% (73%)20,000 .. 50,0000%00:00 (00:00)
50 Crashed Lander Feb 4, 2015 $4.99N/A (N/A)0 .. 20,0000%00:00 (00:00)
51 Strategy & Tactics: Dark Ages Aug 4, 2017 $14.9932% (70%)20,000 .. 50,0000%00:00 (00:00)
52 Cheesecake Cool Conrad Oct 8, 2014 $4.99N/A (N/A)0 .. 20,0000%00:00 (00:00)
53 Impossible Quest Jun 3, 2016 $1.9930% (69%)0 .. 20,0000%00:00 (00:00)
54 Ace Of Words May 13, 2016 $4.99N/A (N/A)100,000 .. 200,0000.32%02:10 (00:43)
55 Mind Games Mar 4, 2016 $2.9927% (67%)0 .. 20,0000%00:00 (00:00)
56 Wildlife Park 2 Jul 17, 2014 $6.9926% (66%)100,000 .. 200,0004%03:55 (01:18)
57 Viking Brothers Apr 23, 2014 $9.99N/A (N/A)0 .. 20,0000%00:00 (00:00)
58 Caravanserail Mar 10, 2016 $2.99N/A (N/A)0 .. 20,0000%00:00 (00:00)
59 Reset 1-1 Aug 30, 2016 $0.4923% (64%)200,000 .. 500,0000%00:00 (00:00)
60 Metrocide Dec 15, 2014 $12.9923% (64%/68%)20,000 .. 50,0000%00:00 (00:00)
61 Hoplite Dec 14, 2016 $0.99N/A (N/A)50,000 .. 100,0000%00:00 (00:00)
62 Marble Duel Nov 12, 2015 $4.9922% (63%)50,000 .. 100,0000.95%02:12 (00:44)
63 Meadowland Oct 22, 2014 $3.99N/A (N/A)0 .. 20,0000%00:00 (00:00)
64 Goodnight Butcher Dec 18, 2015 $1.99N/A (N/A)20,000 .. 50,0000%00:00 (00:00)
65 Pixel Survivors May 5, 2016 $3.9918% (60%)50,000 .. 100,0000%00:00 (00:00)
66 Won't You Be My Laser? Sep 2, 2016 $0.99N/A (N/A)0 .. 20,0002.04%03:05 (01:01)
67 Airstrike HD Mar 23, 2016 $1.9918% (60%)100,000 .. 200,0000.42%00:01 (00:00)
68 Star Chronicles: Delta Quadrant Jul 7, 2015 $0.9917% (59%)200,000 .. 500,0000.1%335:19 (111:46)
69 Boss Monster Apr 28, 2016 $4.9916% (58%)20,000 .. 50,0004.55%00:11 (00:03)
70 Annie Amber Jun 17, 2016 $2.9915% (57%)0 .. 20,0000%00:00 (00:00)
71 Hardware Engineering Sep 28, 2016 $4.9915% (56%)0 .. 20,0000%00:00 (00:00)
72 Autocraft Sep 20, 2017 $9.9914% (55%)0 .. 20,0000%00:00 (00:00)
73 Pointless Feb 22, 2016 Free12% (53%)0 .. 20,0000%00:00 (00:00)
74 Cosmonautica Jul 31, 2015 $9.9911% (51%)100,000 .. 200,0000%00:00 (00:00)
75 Quantum Rush Champions Dec 4, 2014 $9.9911% (51%)20,000 .. 50,0000%00:00 (00:00)
76 The Good Life Nov 21, 2014 $9.9911% (51%)0 .. 20,0000%00:00 (00:00)
77 Autumn May 14, 2016 $2.9911% (50%)50,000 .. 100,0000%00:00 (00:00)
78 Evolution Jun 6, 2016 FreeN/A (N/A)20,000 .. 50,0000%00:00 (00:00)
79 Luke Sidewalker Dec 5, 2016 $0.998% (46%)50,000 .. 100,0000%00:00 (00:00)
80 Melting Hearts: Our Love Will Grow 2 Apr 29, 2016 N/AN/A (N/A)20,000 .. 50,0000%00:00 (00:00)
81 White Mirror Jan 26, 2016 $1.995% (39%)200,000 .. 500,0000%00:00 (00:00)
82 The Battle for Sector 219 Jun 2, 2016 $6.99N/A (N/A)0 .. 20,0000%00:00 (00:00)
83 Space Beret Oct 25, 2016 $0.99N/A (N/A)200,000 .. 500,0000.44%02:36 (01:43)
84 Robot vs Birds Zombies Jul 23, 2015 $0.633% (31%)0 .. 20,0000%00:00 (00:00)
85 Guardians of Victoria Apr 29, 2016 $0.492% (23%)200,000 .. 500,0000.19%05:53 (03:55)
86 Zombie Gotchi Mar 23, 2016 $9.99N/A (N/A)0 .. 20,0000%00:00 (00:00)
87 Plight of the Zombie Feb 22, 2016 $2.99N/A (N/A)0 .. 20,0000%00:00 (00:00)
88 The Architect Jun 4, 2015 $2.99N/A (N/A)0 .. 20,0000%00:00 (00:00)
89 Tyler Jan 14, 2016 $2.99N/A (N/A)0 .. 20,0000%00:00 (00:00)
90 Attempt[42] Dec 8, 2016 $2.99N/A (N/A)50,000 .. 100,0000.27%00:01 (00:00)
91 Robot Rescue Revolution Jul 11, 2014 $4.99N/A (N/A)0 .. 20,0000%00:00 (00:00)
92 Yrminsul Mar 2, 2016 $9.99N/A (N/A)0 .. 20,0000%00:00 (00:00)
93 Crab Cakes Rescue Nov 14, 2014 $6.99N/A (N/A)20,000 .. 50,0000%00:00 (00:00)
94 Blob From Space Oct 15, 2014 $5.99N/A (N/A)20,000 .. 50,0000%00:00 (00:00)
95 Magic Box Jan 19, 2017 $0.99N/A (N/A)50,000 .. 100,0000%00:00 (00:00)
96 BomberZone Jun 10, 2016 $1.99N/A (N/A)20,000 .. 50,0000%00:00 (00:00)
97 Reigning Cats Aug 28, 2015 $1.99N/A (N/A)0 .. 20,0000%00:00 (00:00)
98 Way to Go! Jun 8, 2015 $4.99N/A (N/A)0 .. 20,0000%00:00 (00:00)

Tags over time:

Access restricted.

This feature is only available to users with special access rights. Sorry.

If you want to proceed, you need to register or log in first and then back Steam Spy on Patreon. Look for Indie or Pro pledge.

Don't forget to use the same email as on Steam Spy!

Owners of this game also own:

Access restricted.

This feature is only available to users with special access rights. Sorry.

If you want to proceed, you need to register or log in first and then back Steam Spy on Patreon. Look for Indie or Pro pledge.

Don't forget to use the same email as on Steam Spy!

Playtime distribution:

Access restricted.

This feature is only available to users with special access rights. Sorry.

If you want to proceed, you need to register or log in first and then back Steam Spy on Patreon. Look for Indie or Pro pledge.

Don't forget to use the same email as on Steam Spy!

Playtime (2 weeks):

Access restricted.

This feature is only available to users with special access rights. Sorry.

If you want to proceed, you need to register or log in first and then back Steam Spy on Patreon. Look for Indie or Pro pledge.

Don't forget to use the same email as on Steam Spy!

User reviews:

Login required.

Please register or log in to see this information.